sensor_id;sensor_type;location;lat;lon;timestamp;temperature;humidity
6293;DHT22;3179;54.350;10.102;2022-09-12T00:02:09;15.00;99.90
6293;DHT22;3179;54.350;10.102;2022-09-12T00:04:36;14.90;99.90
6293;DHT22;3179;54.350;10.102;2022-09-12T00:07:03;14.90;99.90
6293;DHT22;3179;54.350;10.102;2022-09-12T00:09:30;14.90;99.90
6293;DHT22;3179;54.350;10.102;2022-09-12T00:12:00;14.90;99.90
6293;DHT22;3179;54.350;10.102;2022-09-12T00:14:27;14.90;99.90
6293;DHT22;3179;54.350;10.102;2022-09-12T00:16:58;14.80;99.90
6293;DHT22;3179;54.350;10.102;2022-09-12T00:19:26;14.80;99.90
6293;DHT22;3179;54.350;10.102;2022-09-12T00:21:55;14.80;99.90
6293;DHT22;3179;54.350;10.102;2022-09-12T00:24:22;14.80;99.90
6293;DHT22;3179;54.350;10.102;2022-09-12T00:26:50;14.80;99.90
6293;DHT22;3179;54.350;10.102;2022-09-12T00:29:19;14.80;99.90
6293;DHT22;3179;54.350;10.102;2022-09-12T00:31:47;14.70;99.90
6293;DHT22;3179;54.350;10.102;2022-09-12T00:34:16;14.70;99.90
6293;DHT22;3179;54.350;10.102;2022-09-12T00:36:42;14.70;99.90
6293;DHT22;3179;54.350;10.102;2022-09-12T00:39:12;14.70;99.90
6293;DHT22;3179;54.350;10.102;2022-09-12T00:41:41;14.70;99.90
6293;DHT22;3179;54.350;10.102;2022-09-12T00:44:44;14.60;99.90
6293;DHT22;3179;54.350;10.102;2022-09-12T00:47:17;14.60;99.90
6293;DHT22;3179;54.350;10.102;2022-09-12T00:49:50;14.60;99.90
6293;DHT22;3179;54.350;10.102;2022-09-12T00:52:22;14.60;99.90
6293;DHT22;3179;54.350;10.102;2022-09-12T00:54:53;14.60;99.90
6293;DHT22;3179;54.350;10.102;2022-09-12T00:57:27;14.50;99.90
6293;DHT22;3179;54.350;10.102;2022-09-12T01:00:00;14.60;99.90
6293;DHT22;3179;54.350;10.102;2022-09-12T01:02:29;14.50;99.90
6293;DHT22;3179;54.350;10.102;2022-09-12T01:04:57;14.50;99.90
6293;DHT22;3179;54.350;10.102;2022-09-12T01:07:25;14.50;99.90
6293;DHT22;3179;54.350;10.102;2022-09-12T01:09:52;14.50;99.90
6293;DHT22;3179;54.350;10.102;2022-09-12T01:12:19;14.50;99.90
6293;DHT22;3179;54.350;10.102;2022-09-12T01:14:46;14.40;99.90
6293;DHT22;3179;54.350;10.102;2022-09-12T01:17:14;14.40;99.90
6293;DHT22;3179;54.350;10.102;2022-09-12T01:20:16;14.40;99.90
6293;DHT22;3179;54.350;10.102;2022-09-12T01:23:13;14.40;99.90
6293;DHT22;3179;54.350;10.102;2022-09-12T01:25:59;14.30;99.90
6293;DHT22;3179;54.350;10.102;2022-09-12T01:28:43;14.30;99.90
6293;DHT22;3179;54.350;10.102;2022-09-12T01:31:20;14.30;99.90
6293;DHT22;3179;54.350;10.102;2022-09-12T01:34:07;14.30;99.90
6293;DHT22;3179;54.350;10.102;2022-09-12T01:36:42;14.30;99.90
6293;DHT22;3179;54.350;10.102;2022-09-12T01:39:19;14.30;99.90
6293;DHT22;3179;54.350;10.102;2022-09-12T01:41:57;14.30;99.90
6293;DHT22;3179;54.350;10.102;2022-09-12T01:44:34;14.30;99.90
6293;DHT22;3179;54.350;10.102;2022-09-12T01:47:08;14.30;99.90
6293;DHT22;3179;54.350;10.102;2022-09-12T01:49:39;14.20;99.90
6293;DHT22;3179;54.350;10.102;2022-09-12T01:52:13;14.20;99.90
6293;DHT22;3179;54.350;10.102;2022-09-12T01:54:45;14.30;99.90
6293;DHT22;3179;54.350;10.102;2022-09-12T01:57:18;14.20;99.90
6293;DHT22;3179;54.350;10.102;2022-09-12T01:59:48;14.20;99.90
6293;DHT22;3179;54.350;10.102;2022-09-12T02:02:20;14.20;99.90
6293;DHT22;3179;54.350;10.102;2022-09-12T02:04:52;14.10;99.90
6293;DHT22;3179;54.350;10.102;2022-09-12T02:07:24;14.10;99.90
6293;DHT22;3179;54.350;10.102;2022-09-12T02:09:55;14.10;99.90
6293;DHT22;3179;54.350;10.102;2022-09-12T02:12:28;14.10;99.90
6293;DHT22;3179;54.350;10.102;2022-09-12T02:15:03;14.10;99.90
6293;DHT22;3179;54.350;10.102;2022-09-12T02:17:37;14.00;99.90
6293;DHT22;3179;54.350;10.102;2022-09-12T02:20:13;14.10;99.90
6293;DHT22;3179;54.350;10.102;2022-09-12T02:22:41;14.00;99.90
6293;DHT22;3179;54.350;10.102;2022-09-12T02:25:11;14.00;99.90
6293;DHT22;3179;54.350;10.102;2022-09-12T02:27:41;14.00;99.90
6293;DHT22;3179;54.350;10.102;2022-09-12T02:30:10;14.00;99.90
6293;DHT22;3179;54.350;10.102;2022-09-12T02:32:45;13.90;99.90
6293;DHT22;3179;54.350;10.102;2022-09-12T02:35:23;13.90;99.90
6293;DHT22;3179;54.350;10.102;2022-09-12T02:37:56;13.90;99.90
6293;DHT22;3179;54.350;10.102;2022-09-12T02:40:25;13.90;99.90
6293;DHT22;3179;54.350;10.102;2022-09-12T02:42:52;13.90;99.90
6293;DHT22;3179;54.350;10.102;2022-09-12T02:45:19;13.90;99.90
6293;DHT22;3179;54.350;10.102;2022-09-12T02:47:51;13.90;99.90
6293;DHT22;3179;54.350;10.102;2022-09-12T02:50:21;13.90;99.90
6293;DHT22;3179;54.350;10.102;2022-09-12T02:52:55;13.80;99.90
6293;DHT22;3179;54.350;10.102;2022-09-12T02:55:25;13.90;99.90
6293;DHT22;3179;54.350;10.102;2022-09-12T02:57:52;13.80;99.90
6293;DHT22;3179;54.350;10.102;2022-09-12T03:00:19;13.80;99.90
6293;DHT22;3179;54.350;10.102;2022-09-12T03:03:01;13.80;99.90
6293;DHT22;3179;54.350;10.102;2022-09-12T03:05:34;13.80;99.90
6293;DHT22;3179;54.350;10.102;2022-09-12T03:08:18;13.70;99.90
6293;DHT22;3179;54.350;10.102;2022-09-12T03:11:08;13.70;99.90
6293;DHT22;3179;54.350;10.102;2022-09-12T03:13:43;13.70;99.90
6293;DHT22;3179;54.350;10.102;2022-09-12T03:16:19;13.70;99.90
6293;DHT22;3179;54.350;10.102;2022-09-12T03:18:59;13.70;99.90
6293;DHT22;3179;54.350;10.102;2022-09-12T03:21:32;13.70;99.90
6293;DHT22;3179;54.350;10.102;2022-09-12T03:24:11;13.60;99.90
6293;DHT22;3179;54.350;10.102;2022-09-12T03:26:43;13.70;99.90
6293;DHT22;3179;54.350;10.102;2022-09-12T03:29:12;13.70;99.90
6293;DHT22;3179;54.350;10.102;2022-09-12T03:31:48;13.60;99.90
6293;DHT22;3179;54.350;10.102;2022-09-12T03:34:17;13.60;99.90
6293;DHT22;3179;54.350;10.102;2022-09-12T03:36:48;13.60;99.90
6293;DHT22;3179;54.350;10.102;2022-09-12T03:39:15;13.50;99.90
6293;DHT22;3179;54.350;10.102;2022-09-12T03:41:42;13.60;99.90
6293;DHT22;3179;54.350;10.102;2022-09-12T03:44:09;13.60;99.90
6293;DHT22;3179;54.350;10.102;2022-09-12T03:46:36;13.50;99.90
6293;DHT22;3179;54.350;10.102;2022-09-12T03:49:02;13.50;99.90
6293;DHT22;3179;54.350;10.102;2022-09-12T03:51:31;13.50;99.90
6293;DHT22;3179;54.350;10.102;2022-09-12T03:53:58;13.50;99.90
6293;DHT22;3179;54.350;10.102;2022-09-12T03:56:25;13.40;99.90
6293;DHT22;3179;54.350;10.102;2022-09-12T03:58:52;13.50;99.90
6293;DHT22;3179;54.350;10.102;2022-09-12T04:01:19;13.40;99.90
6293;DHT22;3179;54.350;10.102;2022-09-12T04:03:48;13.40;99.90
6293;DHT22;3179;54.350;10.102;2022-09-12T04:06:17;13.40;99.90
6293;DHT22;3179;54.350;10.102;2022-09-12T04:08:49;13.30;99.90
6293;DHT22;3179;54.350;10.102;2022-09-12T04:11:18;13.40;99.90
6293;DHT22;3179;54.350;10.102;2022-09-12T04:13:46;13.30;99.90
6293;DHT22;3179;54.350;10.102;2022-09-12T04:16:13;13.40;99.90
6293;DHT22;3179;54.350;10.102;2022-09-12T04:18:40;13.30;99.90
6293;DHT22;3179;54.350;10.102;2022-09-12T04:21:09;13.40;99.90
6293;DHT22;3179;54.350;10.102;2022-09-12T04:23:36;13.40;99.90
6293;DHT22;3179;54.350;10.102;2022-09-12T04:26:05;13.30;99.90
6293;DHT22;3179;54.350;10.102;2022-09-12T04:28:33;13.30;99.90
6293;DHT22;3179;54.350;10.102;2022-09-12T04:31:01;13.40;99.90
6293;DHT22;3179;54.350;10.102;2022-09-12T04:33:29;13.40;99.90
6293;DHT22;3179;54.350;10.102;2022-09-12T04:35:56;13.30;99.90
6293;DHT22;3179;54.350;10.102;2022-09-12T04:38:28;13.40;99.90
6293;DHT22;3179;54.350;10.102;2022-09-12T04:40:54;13.30;99.90
6293;DHT22;3179;54.350;10.102;2022-09-12T04:43:22;13.30;99.90
6293;DHT22;3179;54.350;10.102;2022-09-12T04:45:49;13.30;99.90
6293;DHT22;3179;54.350;10.102;2022-09-12T04:48:16;13.30;99.90
6293;DHT22;3179;54.350;10.102;2022-09-12T04:50:43;13.30;99.90
6293;DHT22;3179;54.350;10.102;2022-09-12T04:53:10;13.30;99.90
6293;DHT22;3179;54.350;10.102;2022-09-12T04:55:37;13.30;99.90
6293;DHT22;3179;54.350;10.102;2022-09-12T04:58:03;13.20;99.90
6293;DHT22;3179;54.350;10.102;2022-09-12T05:00:32;13.20;99.90
6293;DHT22;3179;54.350;10.102;2022-09-12T05:02:59;13.20;99.90
6293;DHT22;3179;54.350;10.102;2022-09-12T05:05:26;13.20;99.90
6293;DHT22;3179;54.350;10.102;2022-09-12T05:07:52;13.20;99.90
6293;DHT22;3179;54.350;10.102;2022-09-12T05:10:19;13.20;99.90
6293;DHT22;3179;54.350;10.102;2022-09-12T05:12:48;13.20;99.90
6293;DHT22;3179;54.350;10.102;2022-09-12T05:15:15;13.20;99.90
6293;DHT22;3179;54.350;10.102;2022-09-12T05:17:43;13.20;99.90
6293;DHT22;3179;54.350;10.102;2022-09-12T05:20:11;13.20;99.90
6293;DHT22;3179;54.350;10.102;2022-09-12T05:22:38;13.20;99.90
6293;DHT22;3179;54.350;10.102;2022-09-12T05:25:06;13.20;99.90
6293;DHT22;3179;54.350;10.102;2022-09-12T05:27:33;13.20;99.90
6293;DHT22;3179;54.350;10.102;2022-09-12T05:29:59;13.20;99.90
6293;DHT22;3179;54.350;10.102;2022-09-12T05:32:30;13.30;99.90
6293;DHT22;3179;54.350;10.102;2022-09-12T05:34:58;13.30;99.90
6293;DHT22;3179;54.350;10.102;2022-09-12T05:37:25;13.30;99.90
6293;DHT22;3179;54.350;10.102;2022-09-12T05:39:52;13.40;99.90
6293;DHT22;3179;54.350;10.102;2022-09-12T05:42:19;13.40;99.90
6293;DHT22;3179;54.350;10.102;2022-09-12T05:44:45;13.40;99.90
6293;DHT22;3179;54.350;10.102;2022-09-12T05:47:12;13.40;99.90
6293;DHT22;3179;54.350;10.102;2022-09-12T05:49:39;13.40;99.90
6293;DHT22;3179;54.350;10.102;2022-09-12T05:52:07;13.40;99.90
6293;DHT22;3179;54.350;10.102;2022-09-12T05:54:34;13.40;99.90
6293;DHT22;3179;54.350;10.102;2022-09-12T05:57:00;13.40;99.90
6293;DHT22;3179;54.350;10.102;2022-09-12T05:59:27;13.40;99.90
6293;DHT22;3179;54.350;10.102;2022-09-12T06:01:54;13.40;99.90
6293;DHT22;3179;54.350;10.102;2022-09-12T06:04:21;13.40;99.90
6293;DHT22;3179;54.350;10.102;2022-09-12T06:06:48;13.50;99.90
6293;DHT22;3179;54.350;10.102;2022-09-12T06:09:17;13.50;99.90
6293;DHT22;3179;54.350;10.102;2022-09-12T06:11:45;13.50;99.90
6293;DHT22;3179;54.350;10.102;2022-09-12T06:14:13;13.60;99.90
6293;DHT22;3179;54.350;10.102;2022-09-12T06:16:41;13.60;99.90
6293;DHT22;3179;54.350;10.102;2022-09-12T06:19:13;13.60;99.90
6293;DHT22;3179;54.350;10.102;2022-09-12T06:21:40;13.60;99.90
6293;DHT22;3179;54.350;10.102;2022-09-12T06:24:07;13.70;99.90
6293;DHT22;3179;54.350;10.102;2022-09-12T06:26:35;13.70;99.90
6293;DHT22;3179;54.350;10.102;2022-09-12T06:29:02;13.80;99.90
6293;DHT22;3179;54.350;10.102;2022-09-12T06:31:31;13.80;99.90
6293;DHT22;3179;54.350;10.102;2022-09-12T06:33:59;13.90;99.90
6293;DHT22;3179;54.350;10.102;2022-09-12T06:36:28;13.90;99.90
6293;DHT22;3179;54.350;10.102;2022-09-12T06:38:57;13.90;99.90
6293;DHT22;3179;54.350;10.102;2022-09-12T06:41:25;14.00;99.90
6293;DHT22;3179;54.350;10.102;2022-09-12T06:43:54;14.10;99.90
6293;DHT22;3179;54.350;10.102;2022-09-12T06:46:21;14.10;99.90
6293;DHT22;3179;54.350;10.102;2022-09-12T06:48:48;14.20;99.90
6293;DHT22;3179;54.350;10.102;2022-09-12T06:51:18;14.20;99.90
6293;DHT22;3179;54.350;10.102;2022-09-12T06:53:46;14.30;99.90
6293;DHT22;3179;54.350;10.102;2022-09-12T06:56:15;14.30;99.90
6293;DHT22;3179;54.350;10.102;2022-09-12T06:58:47;14.30;99.90
6293;DHT22;3179;54.350;10.102;2022-09-12T07:01:17;14.40;99.90
6293;DHT22;3179;54.350;10.102;2022-09-12T07:03:47;14.40;99.90
6293;DHT22;3179;54.350;10.102;2022-09-12T07:06:16;14.50;99.90
6293;DHT22;3179;54.350;10.102;2022-09-12T07:08:43;14.50;99.90
6293;DHT22;3179;54.350;10.102;2022-09-12T07:11:12;14.60;99.90
6293;DHT22;3179;54.350;10.102;2022-09-12T07:13:41;14.60;99.90
6293;DHT22;3179;54.350;10.102;2022-09-12T07:16:09;14.60;99.90
6293;DHT22;3179;54.350;10.102;2022-09-12T07:18:38;14.70;99.90
6293;DHT22;3179;54.350;10.102;2022-09-12T07:21:07;14.80;99.90
6293;DHT22;3179;54.350;10.102;2022-09-12T07:23:34;14.80;99.90
6293;DHT22;3179;54.350;10.102;2022-09-12T07:26:01;14.90;99.90
6293;DHT22;3179;54.350;10.102;2022-09-12T07:28:30;14.90;99.90
6293;DHT22;3179;54.350;10.102;2022-09-12T07:31:03;14.90;99.90
6293;DHT22;3179;54.350;10.102;2022-09-12T07:33:30;15.00;99.90
6293;DHT22;3179;54.350;10.102;2022-09-12T07:36:01;15.00;99.90
6293;DHT22;3179;54.350;10.102;2022-09-12T07:38:29;15.10;99.90
6293;DHT22;3179;54.350;10.102;2022-09-12T07:40:56;15.10;99.90
6293;DHT22;3179;54.350;10.102;2022-09-12T07:43:23;15.20;99.90
6293;DHT22;3179;54.350;10.102;2022-09-12T07:45:54;15.20;99.90
6293;DHT22;3179;54.350;10.102;2022-09-12T07:48:21;15.20;99.90
6293;DHT22;3179;54.350;10.102;2022-09-12T07:50:56;15.30;99.90
6293;DHT22;3179;54.350;10.102;2022-09-12T07:53:25;15.30;99.90
6293;DHT22;3179;54.350;10.102;2022-09-12T07:55:53;15.40;99.90
6293;DHT22;3179;54.350;10.102;2022-09-12T07:58:20;15.40;99.90
6293;DHT22;3179;54.350;10.102;2022-09-12T08:00:46;15.50;99.90
6293;DHT22;3179;54.350;10.102;2022-09-12T08:03:13;15.60;99.90
6293;DHT22;3179;54.350;10.102;2022-09-12T08:05:40;15.60;99.90
6293;DHT22;3179;54.350;10.102;2022-09-12T08:08:07;15.70;99.90
6293;DHT22;3179;54.350;10.102;2022-09-12T08:10:35;15.70;99.90
6293;DHT22;3179;54.350;10.102;2022-09-12T08:13:02;15.80;99.90
6293;DHT22;3179;54.350;10.102;2022-09-12T08:15:34;15.80;99.90
6293;DHT22;3179;54.350;10.102;2022-09-12T08:18:01;15.80;99.90
6293;DHT22;3179;54.350;10.102;2022-09-12T08:20:27;15.90;99.90
6293;DHT22;3179;54.350;10.102;2022-09-12T08:22:54;15.90;99.90
6293;DHT22;3179;54.350;10.102;2022-09-12T08:25:22;16.00;99.90
6293;DHT22;3179;54.350;10.102;2022-09-12T08:27:52;16.00;99.90
6293;DHT22;3179;54.350;10.102;2022-09-12T08:30:20;16.00;99.90
6293;DHT22;3179;54.350;10.102;2022-09-12T08:32:46;16.10;99.90
6293;DHT22;3179;54.350;10.102;2022-09-12T08:35:13;16.10;99.90
6293;DHT22;3179;54.350;10.102;2022-09-12T08:37:41;16.20;99.90
6293;DHT22;3179;54.350;10.102;2022-09-12T08:40:13;16.30;99.90
6293;DHT22;3179;54.350;10.102;2022-09-12T08:42:50;16.30;99.90
6293;DHT22;3179;54.350;10.102;2022-09-12T08:45:22;16.30;99.90
6293;DHT22;3179;54.350;10.102;2022-09-12T08:47:52;16.40;99.90
6293;DHT22;3179;54.350;10.102;2022-09-12T08:50:21;16.50;99.90
6293;DHT22;3179;54.350;10.102;2022-09-12T08:52:53;16.60;99.90
6293;DHT22;3179;54.350;10.102;2022-09-12T08:55:30;16.70;99.90
6293;DHT22;3179;54.350;10.102;2022-09-12T08:57:57;16.70;99.90
6293;DHT22;3179;54.350;10.102;2022-09-12T09:00:34;16.80;99.90
6293;DHT22;3179;54.350;10.102;2022-09-12T09:03:46;16.80;99.90
6293;DHT22;3179;54.350;10.102;2022-09-12T09:06:24;17.00;99.90
6293;DHT22;3179;54.350;10.102;2022-09-12T09:09:03;17.00;99.90
6293;DHT22;3179;54.350;10.102;2022-09-12T09:11:44;17.10;99.90
6293;DHT22;3179;54.350;10.102;2022-09-12T09:17:22;17.20;99.90
6293;DHT22;3179;54.350;10.102;2022-09-12T09:19:55;17.20;99.90
6293;DHT22;3179;54.350;10.102;2022-09-12T09:22:35;17.30;99.90
6293;DHT22;3179;54.350;10.102;2022-09-12T09:25:06;17.30;99.90
6293;DHT22;3179;54.350;10.102;2022-09-12T09:27:39;17.30;99.90
6293;DHT22;3179;54.350;10.102;2022-09-12T09:30:12;17.40;99.90
6293;DHT22;3179;54.350;10.102;2022-09-12T09:32:42;17.40;99.90
6293;DHT22;3179;54.350;10.102;2022-09-12T09:35:15;17.50;99.90
6293;DHT22;3179;54.350;10.102;2022-09-12T09:37:53;17.50;99.90
6293;DHT22;3179;54.350;10.102;2022-09-12T09:40:32;17.60;99.90
6293;DHT22;3179;54.350;10.102;2022-09-12T09:43:09;17.70;99.90
6293;DHT22;3179;54.350;10.102;2022-09-12T09:45:38;17.80;99.90
6293;DHT22;3179;54.350;10.102;2022-09-12T09:48:16;17.80;99.90
6293;DHT22;3179;54.350;10.102;2022-09-12T09:50:45;17.90;99.90
6293;DHT22;3179;54.350;10.102;2022-09-12T09:53:24;17.90;99.90
6293;DHT22;3179;54.350;10.102;2022-09-12T09:55:53;18.00;99.90
6293;DHT22;3179;54.350;10.102;2022-09-12T09:58:29;18.10;99.90
6293;DHT22;3179;54.350;10.102;2022-09-12T10:01:01;18.20;99.90
6293;DHT22;3179;54.350;10.102;2022-09-12T10:03:32;18.20;99.90
6293;DHT22;3179;54.350;10.102;2022-09-12T10:06:04;18.20;99.90
6293;DHT22;3179;54.350;10.102;2022-09-12T10:08:35;18.30;99.90
6293;DHT22;3179;54.350;10.102;2022-09-12T10:11:06;18.30;99.90
6293;DHT22;3179;54.350;10.102;2022-09-12T10:13:52;18.30;99.90
6293;DHT22;3179;54.350;10.102;2022-09-12T10:16:24;18.40;99.90
6293;DHT22;3179;54.350;10.102;2022-09-12T10:18:56;18.40;99.90
6293;DHT22;3179;54.350;10.102;2022-09-12T10:21:30;18.40;99.90
6293;DHT22;3179;54.350;10.102;2022-09-12T10:24:12;18.50;99.90
6293;DHT22;3179;54.350;10.102;2022-09-12T10:26:50;18.50;99.90
6293;DHT22;3179;54.350;10.102;2022-09-12T10:29:21;18.50;99.90
6293;DHT22;3179;54.350;10.102;2022-09-12T10:31:52;18.50;99.90
6293;DHT22;3179;54.350;10.102;2022-09-12T10:34:29;18.50;99.90
6293;DHT22;3179;54.350;10.102;2022-09-12T10:37:03;18.60;99.90
6293;DHT22;3179;54.350;10.102;2022-09-12T10:39:41;18.60;99.90
6293;DHT22;3179;54.350;10.102;2022-09-12T10:42:41;18.60;99.90
6293;DHT22;3179;54.350;10.102;2022-09-12T10:45:24;18.70;99.90
6293;DHT22;3179;54.350;10.102;2022-09-12T10:47:58;18.70;99.90
6293;DHT22;3179;54.350;10.102;2022-09-12T10:50:37;18.70;99.90
6293;DHT22;3179;54.350;10.102;2022-09-12T10:53:13;18.70;99.90
6293;DHT22;3179;54.350;10.102;2022-09-12T10:56:01;18.80;99.90
6293;DHT22;3179;54.350;10.102;2022-09-12T10:58:41;18.80;99.90
6293;DHT22;3179;54.350;10.102;2022-09-12T11:01:21;18.90;99.90
6293;DHT22;3179;54.350;10.102;2022-09-12T11:04:03;18.90;99.90
6293;DHT22;3179;54.350;10.102;2022-09-12T11:06:41;18.90;99.90
6293;DHT22;3179;54.350;10.102;2022-09-12T11:09:16;18.90;99.90
6293;DHT22;3179;54.350;10.102;2022-09-12T11:11:57;19.00;99.90
6293;DHT22;3179;54.350;10.102;2022-09-12T11:14:33;19.00;99.90
6293;DHT22;3179;54.350;10.102;2022-09-12T11:17:12;19.00;99.90
6293;DHT22;3179;54.350;10.102;2022-09-12T11:20:09;19.10;99.90
6293;DHT22;3179;54.350;10.102;2022-09-12T11:23:01;19.10;99.90
6293;DHT22;3179;54.350;10.102;2022-09-12T11:25:36;19.20;99.90
6293;DHT22;3179;54.350;10.102;2022-09-12T11:28:31;19.20;99.90
6293;DHT22;3179;54.350;10.102;2022-09-12T11:31:32;19.20;99.90
6293;DHT22;3179;54.350;10.102;2022-09-12T11:34:08;19.20;99.90
6293;DHT22;3179;54.350;10.102;2022-09-12T11:36:50;19.20;99.90
6293;DHT22;3179;54.350;10.102;2022-09-12T11:39:37;19.30;99.90
6293;DHT22;3179;54.350;10.102;2022-09-12T11:42:11;19.30;99.90
6293;DHT22;3179;54.350;10.102;2022-09-12T11:44:43;19.30;99.90
6293;DHT22;3179;54.350;10.102;2022-09-12T11:47:15;19.30;99.90
6293;DHT22;3179;54.350;10.102;2022-09-12T11:49:53;19.40;99.90
6293;DHT22;3179;54.350;10.102;2022-09-12T11:52:27;19.40;99.90
6293;DHT22;3179;54.350;10.102;2022-09-12T11:55:15;19.40;99.90
6293;DHT22;3179;54.350;10.102;2022-09-12T11:57:44;19.50;99.90
6293;DHT22;3179;54.350;10.102;2022-09-12T12:00:16;19.50;99.90
6293;DHT22;3179;54.350;10.102;2022-09-12T12:02:51;19.60;99.90
6293;DHT22;3179;54.350;10.102;2022-09-12T12:05:23;19.60;99.90
6293;DHT22;3179;54.350;10.102;2022-09-12T12:07:53;19.60;99.90
6293;DHT22;3179;54.350;10.102;2022-09-12T12:10:24;19.60;99.90
6293;DHT22;3179;54.350;10.102;2022-09-12T12:12:54;19.60;99.90
6293;DHT22;3179;54.350;10.102;2022-09-12T12:15:23;19.60;99.90
6293;DHT22;3179;54.350;10.102;2022-09-12T12:18:02;19.60;99.90
6293;DHT22;3179;54.350;10.102;2022-09-12T12:20:30;19.60;99.90
6293;DHT22;3179;54.350;10.102;2022-09-12T12:22:58;19.70;99.90
6293;DHT22;3179;54.350;10.102;2022-09-12T12:25:38;19.70;99.90
6293;DHT22;3179;54.350;10.102;2022-09-12T12:28:06;19.80;99.90
6293;DHT22;3179;54.350;10.102;2022-09-12T12:30:58;19.80;99.90
6293;DHT22;3179;54.350;10.102;2022-09-12T12:33:52;19.90;99.90
6293;DHT22;3179;54.350;10.102;2022-09-12T12:36:35;19.90;99.90
6293;DHT22;3179;54.350;10.102;2022-09-12T12:46:05;20.10;99.90
6293;DHT22;3179;54.350;10.102;2022-09-12T12:48:53;20.20;99.90
6293;DHT22;3179;54.350;10.102;2022-09-12T12:54:27;20.50;99.90
6293;DHT22;3179;54.350;10.102;2022-09-12T12:57:14;20.50;99.90
6293;DHT22;3179;54.350;10.102;2022-09-12T12:59:46;20.60;99.90
6293;DHT22;3179;54.350;10.102;2022-09-12T13:02:23;20.60;99.90
6293;DHT22;3179;54.350;10.102;2022-09-12T13:04:51;20.50;99.90
6293;DHT22;3179;54.350;10.102;2022-09-12T13:07:29;20.60;99.90
6293;DHT22;3179;54.350;10.102;2022-09-12T13:09:57;20.70;99.90
6293;DHT22;3179;54.350;10.102;2022-09-12T13:12:27;20.70;99.90
6293;DHT22;3179;54.350;10.102;2022-09-12T13:14:56;20.80;99.90
6293;DHT22;3179;54.350;10.102;2022-09-12T13:17:34;20.80;99.90
6293;DHT22;3179;54.350;10.102;2022-09-12T13:20:17;20.70;99.90
6293;DHT22;3179;54.350;10.102;2022-09-12T13:22:47;20.70;99.90
6293;DHT22;3179;54.350;10.102;2022-09-12T13:25:24;20.70;99.90
6293;DHT22;3179;54.350;10.102;2022-09-12T13:27:59;20.70;99.90
6293;DHT22;3179;54.350;10.102;2022-09-12T13:30:27;20.70;99.90
6293;DHT22;3179;54.350;10.102;2022-09-12T13:33:04;20.70;99.90
6293;DHT22;3179;54.350;10.102;2022-09-12T13:35:41;20.60;99.90
6293;DHT22;3179;54.350;10.102;2022-09-12T13:38:20;20.70;99.90
6293;DHT22;3179;54.350;10.102;2022-09-12T13:41:06;20.80;99.90
6293;DHT22;3179;54.350;10.102;2022-09-12T13:43:41;20.90;99.90
6293;DHT22;3179;54.350;10.102;2022-09-12T13:46:12;21.00;99.90
6293;DHT22;3179;54.350;10.102;2022-09-12T13:48:42;21.10;99.90
6293;DHT22;3179;54.350;10.102;2022-09-12T13:51:20;21.10;99.90
6293;DHT22;3179;54.350;10.102;2022-09-12T13:53:48;21.10;99.90
6293;DHT22;3179;54.350;10.102;2022-09-12T13:56:18;21.10;99.90
6293;DHT22;3179;54.350;10.102;2022-09-12T13:58:52;21.10;99.90
6293;DHT22;3179;54.350;10.102;2022-09-12T14:01:22;21.10;99.90
6293;DHT22;3179;54.350;10.102;2022-09-12T14:03:52;21.00;99.90
6293;DHT22;3179;54.350;10.102;2022-09-12T14:06:42;21.00;99.90
6293;DHT22;3179;54.350;10.102;2022-09-12T14:09:14;21.00;99.90
6293;DHT22;3179;54.350;10.102;2022-09-12T14:11:42;21.00;99.90
6293;DHT22;3179;54.350;10.102;2022-09-12T14:14:21;21.00;99.90
6293;DHT22;3179;54.350;10.102;2022-09-12T14:16:53;21.10;99.90
6293;DHT22;3179;54.350;10.102;2022-09-12T14:19:23;21.10;99.90
6293;DHT22;3179;54.350;10.102;2022-09-12T14:21:54;21.10;99.90
6293;DHT22;3179;54.350;10.102;2022-09-12T14:24:22;21.10;99.90
6293;DHT22;3179;54.350;10.102;2022-09-12T14:26:51;21.10;99.90
6293;DHT22;3179;54.350;10.102;2022-09-12T14:29:21;21.10;99.90
6293;DHT22;3179;54.350;10.102;2022-09-12T14:32:00;21.20;99.90
6293;DHT22;3179;54.350;10.102;2022-09-12T14:34:29;21.20;99.90
6293;DHT22;3179;54.350;10.102;2022-09-12T14:36:57;21.20;99.90
6293;DHT22;3179;54.350;10.102;2022-09-12T14:39:28;21.30;99.90
6293;DHT22;3179;54.350;10.102;2022-09-12T14:42:03;21.20;99.90
6293;DHT22;3179;54.350;10.102;2022-09-12T14:44:32;21.20;99.90
6293;DHT22;3179;54.350;10.102;2022-09-12T14:47:10;21.10;99.90
6293;DHT22;3179;54.350;10.102;2022-09-12T14:49:40;21.10;99.90
6293;DHT22;3179;54.350;10.102;2022-09-12T14:52:21;21.00;99.90
6293;DHT22;3179;54.350;10.102;2022-09-12T14:54:57;21.10;99.90
6293;DHT22;3179;54.350;10.102;2022-09-12T14:57:34;21.00;99.90
6293;DHT22;3179;54.350;10.102;2022-09-12T15:00:18;21.00;99.90
6293;DHT22;3179;54.350;10.102;2022-09-12T15:02:47;21.00;99.90
6293;DHT22;3179;54.350;10.102;2022-09-12T15:05:18;21.00;99.90
6293;DHT22;3179;54.350;10.102;2022-09-12T15:07:52;20.90;99.90
6293;DHT22;3179;54.350;10.102;2022-09-12T15:10:22;20.90;99.90
6293;DHT22;3179;54.350;10.102;2022-09-12T15:13:02;20.80;99.90
6293;DHT22;3179;54.350;10.102;2022-09-12T15:15:30;20.80;99.90
6293;DHT22;3179;54.350;10.102;2022-09-12T15:17:57;20.80;99.90
6293;DHT22;3179;54.350;10.102;2022-09-12T15:20:25;20.80;99.90
6293;DHT22;3179;54.350;10.102;2022-09-12T15:22:53;20.80;99.90
6293;DHT22;3179;54.350;10.102;2022-09-12T15:25:20;20.70;99.90
6293;DHT22;3179;54.350;10.102;2022-09-12T15:27:49;20.70;99.90
6293;DHT22;3179;54.350;10.102;2022-09-12T15:30:16;20.70;99.90
6293;DHT22;3179;54.350;10.102;2022-09-12T15:32:43;20.70;99.90
6293;DHT22;3179;54.350;10.102;2022-09-12T15:35:14;20.70;99.90
6293;DHT22;3179;54.350;10.102;2022-09-12T15:37:43;20.70;99.90
6293;DHT22;3179;54.350;10.102;2022-09-12T15:40:11;20.70;99.90
6293;DHT22;3179;54.350;10.102;2022-09-12T15:42:38;20.70;99.90
6293;DHT22;3179;54.350;10.102;2022-09-12T15:45:14;20.70;99.90
6293;DHT22;3179;54.350;10.102;2022-09-12T15:47:43;20.70;99.90
6293;DHT22;3179;54.350;10.102;2022-09-12T15:50:09;20.70;99.90
6293;DHT22;3179;54.350;10.102;2022-09-12T15:52:36;20.60;99.90
6293;DHT22;3179;54.350;10.102;2022-09-12T15:55:09;20.60;99.90
6293;DHT22;3179;54.350;10.102;2022-09-12T15:57:37;20.60;99.90
6293;DHT22;3179;54.350;10.102;2022-09-12T16:00:08;20.60;99.90
6293;DHT22;3179;54.350;10.102;2022-09-12T16:02:35;20.60;99.90
6293;DHT22;3179;54.350;10.102;2022-09-12T16:05:02;20.50;99.90
6293;DHT22;3179;54.350;10.102;2022-09-12T16:07:29;20.50;99.90
6293;DHT22;3179;54.350;10.102;2022-09-12T16:09:56;20.50;99.90
6293;DHT22;3179;54.350;10.102;2022-09-12T16:12:24;20.50;99.90
6293;DHT22;3179;54.350;10.102;2022-09-12T16:14:51;20.40;99.90
6293;DHT22;3179;54.350;10.102;2022-09-12T16:17:17;20.50;99.90
6293;DHT22;3179;54.350;10.102;2022-09-12T16:19:44;20.40;99.90
6293;DHT22;3179;54.350;10.102;2022-09-12T16:22:11;20.40;99.90
6293;DHT22;3179;54.350;10.102;2022-09-12T16:24:38;20.40;99.90
6293;DHT22;3179;54.350;10.102;2022-09-12T16:27:04;20.40;99.90
6293;DHT22;3179;54.350;10.102;2022-09-12T16:29:33;20.40;99.90